createdAt,value
2023-05-24T00:00:24.288Z,102165.81
2023-05-24T00:03:31.015Z,102163.19
2023-05-24T00:06:37.253Z,102165.81
2023-05-24T00:09:40.887Z,102161.47
2023-05-24T00:12:44.436Z,102160.59
2023-05-24T00:15:47.979Z,102159.75
2023-05-24T00:18:52.287Z,102158.00
2023-05-24T00:21:57.600Z,102160.59
2023-05-24T00:25:01.221Z,102162.34
2023-05-24T00:28:04.832Z,102151.91
2023-05-24T00:31:08.569Z,102151.91
2023-05-24T00:34:12.372Z,102153.63
2023-05-24T00:37:18.197Z,102155.38
2023-05-24T00:40:21.799Z,102151.91
2023-05-24T00:43:25.599Z,102141.41
2023-05-24T00:46:33.332Z,102142.31
2023-05-24T00:49:37.426Z,102137.94
2023-05-24T00:52:43.452Z,102136.22
2023-05-24T00:55:47.783Z,102137.97
2023-05-24T00:58:54.785Z,102131.00
2023-05-24T01:01:58.553Z,102135.34
2023-05-24T01:05:02.877Z,102131.84
2023-05-24T01:08:22.863Z,102133.59
2023-05-24T01:11:44.352Z,102136.19
2023-05-24T01:15:05.233Z,102126.63
2023-05-24T01:18:17.651Z,102129.25
2023-05-24T01:21:48.569Z,102134.50
2023-05-24T01:25:05.308Z,102130.13
2023-05-24T01:28:12.768Z,102129.22
2023-05-24T01:31:18.565Z,102125.75
2023-05-24T01:34:22.184Z,102129.22
2023-05-24T01:37:25.788Z,102124.00
2023-05-24T01:40:29.454Z,102122.25
2023-05-24T01:43:40.710Z,102123.13
2023-05-24T01:46:51.223Z,102120.50
2023-05-24T01:50:00.665Z,102123.13
2023-05-24T01:53:08.866Z,102122.25
2023-05-24T01:56:14.270Z,102120.53
2023-05-24T01:59:21.794Z,102113.53
2023-05-24T02:02:25.895Z,102120.50
2023-05-24T02:05:29.618Z,102108.31
2023-05-24T02:08:33.361Z,102102.22
2023-05-24T02:11:36.897Z,102108.31
2023-05-24T02:14:42.839Z,102111.78
2023-05-24T02:17:46.494Z,102109.19
2023-05-24T02:20:50.261Z,102110.94
2023-05-24T02:23:53.778Z,102107.47
2023-05-24T02:26:57.329Z,102101.34
2023-05-24T02:30:02.248Z,102103.06
2023-05-24T02:33:05.938Z,102102.19
2023-05-24T02:36:09.600Z,102105.69
2023-05-24T02:39:13.178Z,102103.91
2023-05-24T02:42:16.741Z,102103.06
2023-05-24T02:45:21.826Z,102098.69
2023-05-24T02:48:25.390Z,102108.25
2023-05-24T02:51:28.921Z,102109.13
2023-05-24T02:54:32.388Z,102102.16
2023-05-24T02:57:35.933Z,102111.75
2023-05-24T03:00:41.110Z,102106.53
2023-05-24T03:03:45.022Z,102110.03
2023-05-24T03:06:48.582Z,102098.69
2023-05-24T03:09:52.167Z,102098.69
2023-05-24T03:12:55.717Z,102105.66
2023-05-24T03:16:00.856Z,102104.78
2023-05-24T03:19:04.440Z,102097.81
2023-05-24T03:22:08.005Z,102090.81
2023-05-24T03:25:11.826Z,102099.53
2023-05-24T03:28:15.941Z,102103.91
2023-05-24T03:31:24.226Z,102087.34
2023-05-24T03:34:27.775Z,102093.41
2023-05-24T03:37:31.224Z,102090.00
2023-05-24T03:40:35.406Z,102087.38
2023-05-24T03:43:39.084Z,102085.63
2023-05-24T03:46:44.024Z,102085.59
2023-05-24T03:49:47.504Z,102084.78
2023-05-24T03:52:51.125Z,102083.00
2023-05-24T03:55:54.736Z,102087.34
2023-05-24T03:59:00.882Z,102090.78
2023-05-24T04:02:06.448Z,102081.16
2023-05-24T04:05:12.397Z,102089.00
2023-05-24T04:08:16.519Z,102092.53
2023-05-24T04:11:20.581Z,102095.09
2023-05-24T04:14:24.196Z,102094.19
2023-05-24T04:17:34.975Z,102096.81
2023-05-24T04:20:38.941Z,102096.78
2023-05-24T04:23:42.508Z,102097.69
2023-05-24T04:26:47.721Z,102095.94
2023-05-24T04:29:53.288Z,102111.56
2023-05-24T04:32:58.593Z,102103.69
2023-05-24T04:36:02.307Z,102109.84
2023-05-24T04:39:06.081Z,102111.53
2023-05-24T04:42:09.787Z,102114.19
2023-05-24T04:45:25.077Z,102113.28
2023-05-24T04:48:30.026Z,102119.34
2023-05-24T04:51:34.164Z,102120.25
2023-05-24T04:54:37.679Z,102127.22
2023-05-24T04:57:41.304Z,102119.41
2023-05-24T05:00:45.793Z,102127.22
2023-05-24T05:03:50.789Z,102125.38
2023-05-24T05:06:55.583Z,102128.03
2023-05-24T05:09:59.167Z,102132.41
2023-05-24T05:13:02.869Z,102138.53
2023-05-24T05:16:06.819Z,102139.44
2023-05-24T05:19:11.757Z,102144.59
2023-05-24T05:22:15.219Z,102137.69
2023-05-24T05:25:18.862Z,102141.16
2023-05-24T05:28:22.416Z,102152.44
2023-05-24T05:31:26.454Z,102138.50
2023-05-24T05:34:31.299Z,102139.41
2023-05-24T05:37:34.774Z,102141.13
2023-05-24T05:40:38.203Z,102142.03
2023-05-24T05:43:41.801Z,102141.09
2023-05-24T05:46:46.407Z,102143.69
2023-05-24T05:49:51.473Z,102135.75
2023-05-24T05:52:54.968Z,102144.59
2023-05-24T05:55:58.634Z,102146.19
2023-05-24T05:59:02.138Z,102142.66
2023-05-24T06:02:07.237Z,102151.41
2023-05-24T06:05:13.985Z,102148.78
2023-05-24T06:08:18.858Z,102149.66
2023-05-24T06:11:22.567Z,102160.09
2023-05-24T06:14:26.075Z,102160.09
2023-05-24T06:17:30.214Z,102168.84
2023-05-24T06:20:35.298Z,102174.97
2023-05-24T06:23:38.989Z,102169.75
2023-05-24T06:26:42.854Z,102174.94
2023-05-24T06:29:46.827Z,102181.06
2023-05-24T06:32:50.465Z,102187.94
2023-05-24T06:35:55.412Z,102182.78
2023-05-24T06:38:58.864Z,102186.22
2023-05-24T06:42:02.359Z,102200.19
2023-05-24T06:45:08.369Z,102200.13
2023-05-24T06:48:12.079Z,102192.31
2023-05-24T06:51:17.293Z,102193.19
2023-05-24T06:54:21.753Z,102191.31
2023-05-24T06:57:25.620Z,102200.94
2023-05-24T07:00:29.114Z,102194.78
2023-05-24T07:03:32.957Z,102191.25
2023-05-24T07:06:39.422Z,102196.53
2023-05-24T07:09:44.362Z,102201.78
2023-05-24T07:12:47.863Z,102199.09
2023-05-24T07:15:51.376Z,102211.34
2023-05-24T07:18:56.549Z,102217.44
2023-05-24T07:22:01.594Z,102213.09
2023-05-24T07:25:05.732Z,102223.59
2023-05-24T07:28:09.227Z,102217.38
2023-05-24T07:31:12.792Z,102213.78
2023-05-24T07:34:16.509Z,102214.66
2023-05-24T07:37:24.154Z,102207.63
2023-05-24T07:40:27.647Z,102214.56
2023-05-24T07:43:31.318Z,102214.41
2023-05-24T07:46:35.300Z,102217.94
2023-05-24T07:49:38.898Z,102214.41
2023-05-24T07:52:43.844Z,102225.63
2023-05-24T07:55:47.769Z,102222.00
2023-05-24T07:58:51.894Z,102222.19
2023-05-24T08:01:55.771Z,102223.66
2023-05-24T08:04:59.286Z,102225.28
2023-05-24T08:08:04.265Z,102220.13
2023-05-24T08:11:08.441Z,102221.78
2023-05-24T08:14:11.978Z,102220.00
2023-05-24T08:17:15.544Z,102230.44
2023-05-24T08:20:19.271Z,102220.84
2023-05-24T08:23:24.228Z,102233.16
2023-05-24T08:26:27.959Z,102228.09
2023-05-24T08:29:31.708Z,102228.91
2023-05-24T08:32:36.435Z,102226.19
2023-05-24T08:35:40.382Z,102234.91
2023-05-24T08:38:45.510Z,102235.84
2023-05-24T08:42:01.035Z,102244.59
2023-05-24T08:45:23.828Z,102252.56
2023-05-24T08:48:29.498Z,102257.78
2023-05-24T08:51:33.308Z,102263.91
2023-05-24T08:54:39.811Z,102267.41
2023-05-24T08:57:45.125Z,102267.47
2023-05-24T09:00:48.675Z,102265.53
2023-05-24T09:03:54.438Z,102266.22
2023-05-24T09:06:59.574Z,102265.13
2023-05-24T09:10:09.050Z,102266.72
2023-05-24T09:13:16.744Z,102262.28
2023-05-24T09:16:21.593Z,102258.75
2023-05-24T09:19:27.937Z,102261.25
2023-05-24T09:22:31.528Z,102258.56
2023-05-24T09:25:37.014Z,102264.38
2023-05-24T09:28:41.827Z,102266.44
2023-05-24T09:31:45.716Z,102270.66
2023-05-24T09:34:49.330Z,102260.59
2023-05-24T09:37:57.409Z,102258.25
2023-05-24T09:41:04.449Z,102262.91
2023-05-24T09:44:08.033Z,102249.69
2023-05-24T09:47:12.937Z,102244.75
2023-05-24T09:50:18.593Z,102246.56
2023-05-24T09:53:24.220Z,102261.91
2023-05-24T09:56:29.304Z,102249.31
2023-05-24T09:59:35.336Z,102258.16
2023-05-24T10:02:51.560Z,102262.81
2023-05-24T10:05:57.131Z,102268.53
2023-05-24T10:09:01.426Z,102273.16
2023-05-24T10:12:09.184Z,102259.13
2023-05-24T10:15:28.527Z,102255.41
2023-05-24T10:18:33.049Z,102252.63
2023-05-24T10:21:43.355Z,102256.13
2023-05-24T10:24:51.330Z,102257.94
2023-05-24T10:27:59.949Z,102250.56
2023-05-24T10:31:11.902Z,102254.22
2023-05-24T10:34:16.056Z,102256.25
2023-05-24T10:37:19.830Z,102259.25
2023-05-24T10:40:26.155Z,102263.91
2023-05-24T10:43:31.183Z,102266.47
2023-05-24T10:46:35.024Z,102256.22
2023-05-24T10:49:40.345Z,102248.88
2023-05-24T10:52:44.669Z,102261.03
2023-05-24T10:55:58.827Z,102267.25
2023-05-24T10:59:06.283Z,102267.78
2023-05-24T11:02:14.064Z,102266.91
2023-05-24T11:05:18.371Z,102263.22
2023-05-24T11:08:27.707Z,102276.69
2023-05-24T11:11:32.408Z,102274.81
2023-05-24T11:14:40.757Z,102276.44
2023-05-24T11:18:15.538Z,102282.88
2023-05-24T11:21:20.034Z,102283.72
2023-05-24T11:24:23.676Z,102284.44
2023-05-24T11:27:28.061Z,102282.03
2023-05-24T11:30:34.027Z,102290.13
2023-05-24T11:33:43.761Z,102298.84
2023-05-24T11:36:48.232Z,102295.63
2023-05-24T11:39:53.485Z,102300.88
2023-05-24T11:42:58.047Z,102304.38
2023-05-24T11:46:03.124Z,102303.38
2023-05-24T11:49:07.458Z,102298.03
2023-05-24T11:52:11.074Z,102307.59
2023-05-24T11:55:17.223Z,102297.16
2023-05-24T11:58:24.935Z,102300.41
2023-05-24T12:01:30.056Z,102302.81
2023-05-24T12:04:35.359Z,102303.41
2023-05-24T12:07:40.804Z,102298.63
2023-05-24T12:10:45.599Z,102301.28
2023-05-24T12:13:49.395Z,102293.63
2023-05-24T12:16:58.366Z,102293.69
2023-05-24T12:20:06.355Z,102299.16
2023-05-24T12:23:11.533Z,102300.91
2023-05-24T12:26:16.510Z,102293.44
2023-05-24T12:29:22.006Z,102302.66
2023-05-24T12:32:27.488Z,102302.22
2023-05-24T12:35:31.196Z,102301.66
2023-05-24T12:38:34.789Z,102299.38
2023-05-24T12:41:38.339Z,102307.06
2023-05-24T12:44:42.091Z,102300.69
2023-05-24T12:47:47.398Z,102311.41
2023-05-24T12:50:51.268Z,102305.13
2023-05-24T12:53:54.764Z,102311.56
2023-05-24T12:57:02.812Z,102311.41
2023-05-24T13:00:08.712Z,102312.06
2023-05-24T13:03:13.808Z,102311.19
2023-05-24T13:06:17.777Z,102306.47
2023-05-24T13:09:23.540Z,102310.66
2023-05-24T13:12:27.971Z,102312.09
2023-05-24T13:15:31.471Z,102313.16
2023-05-24T13:18:37.427Z,102310.66
2023-05-24T13:21:41.536Z,102318.19
2023-05-24T13:24:45.379Z,102311.47
2023-05-24T13:27:48.890Z,102309.78
2023-05-24T13:30:52.493Z,102313.66
2023-05-24T13:33:57.709Z,102311.88
2023-05-24T13:37:01.681Z,102319.13
2023-05-24T13:40:06.361Z,102311.72
2023-05-24T13:43:09.983Z,102322.91
2023-05-24T13:46:14.597Z,102311.00
2023-05-24T13:49:19.649Z,102318.81
2023-05-24T13:52:23.702Z,102320.59
2023-05-24T13:55:28.758Z,102317.16
2023-05-24T13:58:32.502Z,102319.56
2023-05-24T14:01:37.863Z,102323.78
2023-05-24T14:04:43.174Z,102318.97
2023-05-24T14:07:47.332Z,102322.66
2023-05-24T14:10:51.809Z,102310.31
2023-05-24T14:14:57.126Z,102326.78
2023-05-24T14:17:19.031Z,102321.84
2023-05-24T14:20:24.037Z,102318.03
2023-05-24T14:23:27.828Z,102324.09
2023-05-24T14:26:31.436Z,102327.91
2023-05-24T14:29:34.985Z,102316.06
2023-05-24T14:32:38.506Z,102327.94
2023-05-24T14:35:43.818Z,102329.69
2023-05-24T14:38:47.425Z,102324.75
2023-05-24T14:41:50.917Z,102333.31
2023-05-24T14:44:54.468Z,102330.22
2023-05-24T14:47:58.505Z,102337.25
2023-05-24T14:51:03.464Z,102326.22
2023-05-24T14:54:07.319Z,102324.78
2023-05-24T14:57:10.788Z,102330.16
2023-05-24T15:00:17.486Z,102323.50
2023-05-24T15:03:22.186Z,102327.03
2023-05-24T15:06:27.145Z,102334.03
2023-05-24T15:09:30.649Z,102324.47
2023-05-24T15:12:34.142Z,102319.25
2023-05-24T15:15:38.350Z,102326.22
2023-05-24T15:18:42.172Z,102330.75
2023-05-24T15:21:47.066Z,102332.34
2023-05-24T15:24:50.627Z,102328.00
2023-05-24T15:27:54.904Z,102329.78
2023-05-24T15:30:58.615Z,102325.03
2023-05-24T15:34:02.139Z,102327.13
2023-05-24T15:37:07.590Z,102325.38
2023-05-24T15:40:13.376Z,102318.16
2023-05-24T15:43:20.393Z,102327.56
2023-05-24T15:46:24.302Z,102326.56
2023-05-24T15:49:28.390Z,102327.34
2023-05-24T15:52:33.395Z,102330.94
2023-05-24T15:55:38.523Z,102327.53
2023-05-24T15:58:41.988Z,102331.13
2023-05-24T16:01:45.675Z,102334.28
2023-05-24T16:04:49.277Z,102334.13
2023-05-24T16:07:54.223Z,102345.34
2023-05-24T16:10:58.265Z,102335.78
2023-05-24T16:14:03.425Z,102338.00
2023-05-24T16:17:07.328Z,102337.94
2023-05-24T16:20:12.071Z,102336.97
2023-05-24T16:23:17.044Z,102338.22
2023-05-24T16:26:20.652Z,102340.16
2023-05-24T16:29:24.239Z,102342.97
2023-05-24T16:32:27.814Z,102336.88
2023-05-24T16:35:32.106Z,102345.19
2023-05-24T16:38:37.577Z,102335.25
2023-05-24T16:41:41.499Z,102338.34
2023-05-24T16:44:45.002Z,102334.34
2023-05-24T16:47:48.657Z,102332.91
2023-05-24T16:50:54.447Z,102338.00
2023-05-24T16:53:59.460Z,102334.88
2023-05-24T16:57:03.446Z,102329.59
2023-05-24T17:00:08.980Z,102328.31
2023-05-24T17:03:12.710Z,102331.97
2023-05-24T17:06:16.521Z,102328.31
2023-05-24T17:09:21.512Z,102335.88
2023-05-24T17:12:24.989Z,102342.88
2023-05-24T17:15:28.544Z,102343.13
2023-05-24T17:18:32.080Z,102348.34
2023-05-24T17:21:36.895Z,102337.88
2023-05-24T17:24:41.835Z,102353.25
2023-05-24T17:27:45.476Z,102353.28
2023-05-24T17:30:49.002Z,102355.06
2023-05-24T17:33:52.547Z,102359.59
2023-05-24T17:36:56.069Z,102367.44
2023-05-24T17:40:01.183Z,102361.28
2023-05-24T17:43:04.941Z,102362.91
2023-05-24T17:46:08.734Z,102362.06
2023-05-24T17:49:14.044Z,102367.16
2023-05-24T17:52:17.695Z,102371.06
2023-05-24T17:55:22.680Z,102375.72
2023-05-24T17:58:26.973Z,102371.88
2023-05-24T18:01:30.818Z,102380.63
2023-05-24T18:04:34.805Z,102382.50
2023-05-24T18:07:38.552Z,102387.03
2023-05-24T18:10:43.516Z,102385.91
2023-05-24T18:13:47.170Z,102384.34
2023-05-24T18:16:50.961Z,102384.53
2023-05-24T18:19:54.569Z,102385.41
2023-05-24T18:22:58.144Z,102384.56
2023-05-24T18:26:03.339Z,102386.34
2023-05-24T18:29:07.010Z,102388.28
2023-05-24T18:32:11.801Z,102402.28
2023-05-24T18:35:15.808Z,102398.81
2023-05-24T18:38:19.653Z,102402.47
2023-05-24T18:41:24.831Z,102394.53
2023-05-24T18:44:28.362Z,102400.75
2023-05-24T18:47:32.417Z,102393.75
2023-05-24T18:50:35.947Z,102393.78
2023-05-24T18:53:40.352Z,102393.69
2023-05-24T18:56:45.655Z,102394.66
2023-05-24T18:59:49.155Z,102388.69
2023-05-24T19:02:52.810Z,102396.59
2023-05-24T19:05:56.385Z,102395.81
2023-05-24T19:09:00.834Z,102393.13
2023-05-24T19:12:06.381Z,102399.28
2023-05-24T19:15:10.925Z,102394.94
2023-05-24T19:18:14.456Z,102401.00
2023-05-24T19:21:17.979Z,102409.94
2023-05-24T19:24:24.281Z,102411.69
2023-05-24T19:27:29.232Z,102413.47
2023-05-24T19:30:34.194Z,102405.56
2023-05-24T19:33:48.389Z,102409.19
2023-05-24T19:36:56.040Z,102415.31
2023-05-24T19:40:00.279Z,102417.91
2023-05-24T19:43:05.259Z,102427.56
2023-05-24T19:46:10.766Z,102425.94
2023-05-24T19:49:14.428Z,102430.28
2023-05-24T19:52:20.507Z,102433.78
2023-05-24T19:55:24.188Z,102443.44
2023-05-24T19:58:29.963Z,102450.50
2023-05-24T20:01:33.621Z,102448.78
2023-05-24T20:04:41.496Z,102446.28
2023-05-24T20:07:45.043Z,102445.38
2023-05-24T20:10:50.711Z,102445.44
2023-05-24T20:13:56.205Z,102454.13
2023-05-24T20:17:01.465Z,102463.72
2023-05-24T20:20:05.604Z,102467.22
2023-05-24T20:23:09.212Z,102467.22
2023-05-24T20:26:13.772Z,102469.09
2023-05-24T20:29:18.786Z,102473.38
2023-05-24T20:32:22.598Z,102472.59
2023-05-24T20:35:26.214Z,102473.53
2023-05-24T20:38:29.759Z,102477.06
2023-05-24T20:41:34.168Z,102477.94
2023-05-24T20:44:39.075Z,102481.38
2023-05-24T20:47:42.798Z,102484.03
2023-05-24T20:50:46.421Z,102484.09
2023-05-24T20:53:52.188Z,102487.59
2023-05-24T20:56:55.687Z,102493.69
2023-05-24T21:00:00.864Z,102492.81
2023-05-24T21:03:04.677Z,102498.97
2023-05-24T21:06:08.732Z,102498.06
2023-05-24T21:09:12.324Z,102497.28
2023-05-24T21:12:16.092Z,102491.03
2023-05-24T21:15:21.076Z,102502.47
2023-05-24T21:18:24.706Z,102502.50
2023-05-24T21:21:28.196Z,102501.56
2023-05-24T21:24:31.752Z,102507.81
2023-05-24T21:27:35.301Z,102500.78
2023-05-24T21:30:40.305Z,102497.25
2023-05-24T21:33:44.231Z,102510.47
2023-05-24T21:36:47.732Z,102510.47
2023-05-24T21:39:51.855Z,102512.19
2023-05-24T21:42:55.416Z,102518.34
2023-05-24T21:46:00.361Z,102511.28
2023-05-24T21:49:03.987Z,102516.56
2023-05-24T21:52:07.598Z,102509.56
2023-05-24T21:55:11.505Z,102514.84
2023-05-24T21:58:15.066Z,102517.50
2023-05-24T22:01:20.084Z,102522.72
2023-05-24T22:04:23.733Z,102527.97
2023-05-24T22:07:27.439Z,102526.28
2023-05-24T22:10:31.023Z,102528.00
2023-05-24T22:13:34.559Z,102524.47
2023-05-24T22:16:39.645Z,102526.22
2023-05-24T22:19:44.056Z,102530.63
2023-05-24T22:22:53.379Z,102540.22
2023-05-24T22:25:56.996Z,102535.81
2023-05-24T22:29:04.112Z,102541.06
2023-05-24T22:32:09.145Z,102535.84
2023-05-24T22:35:12.829Z,102538.47
2023-05-24T22:38:16.322Z,102545.44
2023-05-24T22:41:20.061Z,102545.47
2023-05-24T22:44:23.663Z,102540.28
2023-05-24T22:47:28.903Z,102539.38
2023-05-24T22:50:32.472Z,102542.00
2023-05-24T22:53:37.834Z,102540.25
2023-05-24T22:56:43.798Z,102542.88
2023-05-24T22:59:47.360Z,102540.22
2023-05-24T23:02:52.395Z,102531.44
2023-05-24T23:05:55.960Z,102543.69
2023-05-24T23:08:59.853Z,102541.06
2023-05-24T23:12:08.118Z,102536.75
2023-05-24T23:15:18.291Z,102533.28
2023-05-24T23:18:25.808Z,102547.31
2023-05-24T23:21:29.589Z,102550.81
2023-05-24T23:24:34.450Z,102549.94
2023-05-24T23:27:38.079Z,102544.69
2023-05-24T23:30:41.662Z,102540.31
2023-05-24T23:33:46.676Z,102547.34
2023-05-24T23:36:50.196Z,102545.53
2023-05-24T23:39:53.774Z,102553.41
2023-05-24T23:42:57.605Z,102548.16
2023-05-24T23:46:01.228Z,102553.44
2023-05-24T23:49:06.456Z,102550.75
2023-05-24T23:52:10.639Z,102555.16
2023-05-24T23:55:14.237Z,102562.13
2023-05-24T23:58:18.244Z,102549.94
